CPS6 weather

Cornwall (Community Hospital McConnell Site) Heliport
Cornwall, Ontario, Canada

Public forecast

Using degrees Celsius for public forecast. Weather courtesy of forecast.io.

METAR (pilot weather report)

Closest report is Massena International Richards Field, 7.4 nm (13.8 km) SW. Retrieved 2019/05/25 07:23 UTC (0 seconds ago):

KMSS 250723Z AUTO 00000KT 2 1/2SM BR CLR 07/06 A3016 RMK AO2 T00720061

TAF (pilot weather forecast)

Closest forecast is Massena International Richards Field, 7.4 nm (13.8 km) SW. Retrieved 2019/05/25 06:36 UTC (30 minutes ago):

TAF KMSS 250534Z 2506/2606 VRB04KT 6SM BR FEW150 TEMPO 2506/2510 2SM BR SCT002 FM251000 16005KT P6SM SCT120 FM251900 19006KT 4SM -SHRA BR OVC060 FM260200 20007KT P6SM VCSH OVC010 FM260500 23009KT P6SM BKN009